createdAt,value
2023-01-06T00:00:03.066Z,9.15
2023-01-06T00:01:02.901Z,9.12
2023-01-06T00:02:03.042Z,9.09
2023-01-06T00:03:02.852Z,9.08
2023-01-06T00:04:02.927Z,9.08
2023-01-06T00:05:02.858Z,9.08
2023-01-06T00:06:02.977Z,9.08
2023-01-06T00:07:02.817Z,9.06
2023-01-06T00:08:02.916Z,9.03
2023-01-06T00:09:02.796Z,9.00
2023-01-06T00:10:02.853Z,8.98
2023-01-06T00:11:02.765Z,8.95
2023-01-06T00:12:02.876Z,8.93
2023-01-06T00:13:02.720Z,8.90
2023-01-06T00:14:02.828Z,8.89
2023-01-06T00:15:02.700Z,8.89
2023-01-06T00:16:02.886Z,8.87
2023-01-06T00:17:02.686Z,8.86
2023-01-06T00:18:03.911Z,8.85
2023-01-06T00:19:02.648Z,8.83
2023-01-06T00:20:03.753Z,8.81
2023-01-06T00:21:02.615Z,8.81
2023-01-06T00:22:03.678Z,8.82
2023-01-06T00:23:02.626Z,8.81
2023-01-06T00:24:02.682Z,8.80
2023-01-06T00:25:02.566Z,8.79
2023-01-06T00:26:02.715Z,8.79
2023-01-06T00:27:02.537Z,8.77
2023-01-06T00:28:02.655Z,8.73
2023-01-06T00:29:02.537Z,8.70
2023-01-06T00:30:02.596Z,8.67
2023-01-06T00:31:02.507Z,8.64
2023-01-06T00:32:02.635Z,8.60
2023-01-06T00:33:02.457Z,8.58
2023-01-06T00:34:02.577Z,8.55
2023-01-06T00:35:02.480Z,8.53
2023-01-06T00:36:02.596Z,8.51
2023-01-06T00:37:02.409Z,8.50
2023-01-06T00:38:02.436Z,8.45
2023-01-06T00:39:02.385Z,8.42
2023-01-06T00:40:02.478Z,8.39
2023-01-06T00:41:02.399Z,8.39
2023-01-06T00:42:02.508Z,8.39
2023-01-06T00:43:02.331Z,8.38
2023-01-06T00:44:02.372Z,8.38
2023-01-06T00:45:02.302Z,8.39
2023-01-06T00:46:02.564Z,8.39
2023-01-06T00:47:02.296Z,8.36
2023-01-06T00:48:02.304Z,8.32
2023-01-06T00:49:06.609Z,8.28
2023-01-06T00:50:02.235Z,8.23
2023-01-06T00:51:04.417Z,8.16
2023-01-06T00:52:02.220Z,8.10
2023-01-06T00:53:02.306Z,8.05
2023-01-06T00:54:02.194Z,8.03
2023-01-06T00:55:03.304Z,7.99
2023-01-06T00:56:02.160Z,7.95
2023-01-06T00:57:02.314Z,7.90
2023-01-06T00:58:02.136Z,7.84
2023-01-06T00:59:02.308Z,7.77
2023-01-06T01:00:02.115Z,7.71
2023-01-06T01:01:02.186Z,7.64
2023-01-06T01:02:02.243Z,7.59
2023-01-06T01:03:02.175Z,7.54
2023-01-06T01:04:02.059Z,7.51
2023-01-06T01:05:02.213Z,7.49
2023-01-06T01:06:02.037Z,7.47
2023-01-06T01:07:02.194Z,7.44
2023-01-06T01:08:02.028Z,7.40
2023-01-06T01:09:02.034Z,7.36
2023-01-06T01:10:01.973Z,7.33
2023-01-06T01:11:03.294Z,7.28
2023-01-06T01:12:01.952Z,7.23
2023-01-06T01:13:03.029Z,7.18
2023-01-06T01:14:01.934Z,7.15
2023-01-06T01:15:02.043Z,7.13
2023-01-06T01:16:01.983Z,7.13
2023-01-06T01:17:02.073Z,7.13
2023-01-06T01:18:01.975Z,7.11
2023-01-06T01:19:03.026Z,7.10
2023-01-06T01:20:01.873Z,7.08
2023-01-06T01:21:01.953Z,7.05
2023-01-06T01:22:01.830Z,7.03
2023-01-06T01:23:01.931Z,7.00
2023-01-06T01:24:01.805Z,6.97
2023-01-06T01:26:11.191Z,6.60
2023-01-06T01:27:11.091Z,6.60
2023-01-06T01:28:11.181Z,6.87
2023-01-06T01:29:11.061Z,7.07
2023-01-06T01:30:11.090Z,7.22
2023-01-06T01:31:11.081Z,7.30
2023-01-06T01:32:11.115Z,7.32
2023-01-06T01:33:11.002Z,7.33
2023-01-06T01:34:11.171Z,7.33
2023-01-06T01:35:10.983Z,7.34
2023-01-06T01:36:12.060Z,7.35
2023-01-06T01:37:10.972Z,7.36
2023-01-06T01:38:11.099Z,7.40
2023-01-06T01:39:10.920Z,7.48
2023-01-06T01:40:11.103Z,7.53
2023-01-06T01:41:10.895Z,7.56
2023-01-06T01:42:11.071Z,7.53
2023-01-06T01:43:10.870Z,7.50
2023-01-06T01:44:10.902Z,7.51
2023-01-06T01:45:10.859Z,7.52
2023-01-06T01:46:10.998Z,7.53
2023-01-06T01:47:10.810Z,7.57
2023-01-06T01:48:10.978Z,7.59
2023-01-06T01:49:10.782Z,7.60
2023-01-06T01:50:11.932Z,7.63
2023-01-06T01:51:10.776Z,7.63
2023-01-06T01:52:10.897Z,7.64
2023-01-06T01:53:10.741Z,7.68
2023-01-06T01:54:10.794Z,7.73
2023-01-06T01:55:10.711Z,7.79
2023-01-06T01:56:10.836Z,7.83
2023-01-06T01:57:10.684Z,7.87
2023-01-06T01:58:10.805Z,7.92
2023-01-06T01:59:10.662Z,7.97
2023-01-06T02:00:10.711Z,8.01
2023-01-06T02:01:10.721Z,8.05
2023-01-06T02:02:10.771Z,8.08
2023-01-06T02:03:10.651Z,8.08
2023-01-06T02:04:10.713Z,8.09
2023-01-06T02:05:10.577Z,8.10
2023-01-06T02:06:10.717Z,8.06
2023-01-06T02:07:10.558Z,8.01
2023-01-06T02:08:10.738Z,7.94
2023-01-06T02:09:10.539Z,7.87
2023-01-06T02:10:10.739Z,7.82
2023-01-06T02:11:10.488Z,7.75
2023-01-06T02:12:10.597Z,7.68
2023-01-06T02:13:10.478Z,7.62
2023-01-06T02:14:10.546Z,7.52
2023-01-06T02:15:10.456Z,7.43
2023-01-06T02:16:10.662Z,7.34
2023-01-06T02:17:10.421Z,7.26
2023-01-06T02:18:11.542Z,7.18
2023-01-06T02:19:10.393Z,7.14
2023-01-06T02:20:10.429Z,7.12
2023-01-06T02:21:10.353Z,7.11
2023-01-06T02:22:10.431Z,7.11
2023-01-06T02:23:10.342Z,7.13
2023-01-06T02:24:11.443Z,7.13
2023-01-06T02:25:10.309Z,7.13
2023-01-06T02:26:10.448Z,7.11
2023-01-06T02:27:10.267Z,7.08
2023-01-06T02:28:10.346Z,7.03
2023-01-06T02:29:10.276Z,6.99
2023-01-06T02:30:10.316Z,6.96
2023-01-06T02:31:10.263Z,6.93
2023-01-06T02:32:10.348Z,6.90
2023-01-06T02:33:10.198Z,6.87
2023-01-06T02:34:10.337Z,6.83
2023-01-06T02:35:10.185Z,6.80
2023-01-06T02:36:11.347Z,6.80
2023-01-06T02:37:10.147Z,6.80
2023-01-06T02:38:10.258Z,6.78
2023-01-06T02:39:10.118Z,6.77
2023-01-06T02:40:10.245Z,6.77
2023-01-06T02:41:10.096Z,6.77
2023-01-06T02:42:11.145Z,6.75
2023-01-06T02:43:10.074Z,6.73
2023-01-06T02:44:11.363Z,6.69
2023-01-06T02:45:10.046Z,6.67
2023-01-06T02:46:10.184Z,6.69
2023-01-06T02:47:10.010Z,6.70
2023-01-06T02:48:10.045Z,6.70
2023-01-06T02:49:09.997Z,6.68
2023-01-06T02:50:10.067Z,6.68
2023-01-06T02:51:10.002Z,6.65
2023-01-06T02:52:10.053Z,6.63
2023-01-06T02:53:09.953Z,6.60
2023-01-06T02:54:10.043Z,6.60
2023-01-06T02:55:09.899Z,6.60
2023-01-06T02:56:10.078Z,6.57
2023-01-06T02:57:09.890Z,6.57
2023-01-06T02:58:12.006Z,6.55
2023-01-06T02:59:09.845Z,6.51
2023-01-06T03:00:09.946Z,6.47
2023-01-06T03:01:09.840Z,6.49
2023-01-06T03:02:09.974Z,6.57
2023-01-06T03:03:09.795Z,6.64
2023-01-06T03:04:09.973Z,6.68
2023-01-06T03:05:09.767Z,6.67
2023-01-06T03:06:09.957Z,6.65
2023-01-06T03:07:09.735Z,6.61
2023-01-06T03:08:09.794Z,6.56
2023-01-06T03:09:09.717Z,6.51
2023-01-06T03:10:09.876Z,6.46
2023-01-06T03:11:09.696Z,6.43
2023-01-06T03:12:09.856Z,6.38
2023-01-06T03:13:09.665Z,6.34
2023-01-06T03:14:09.796Z,6.31
2023-01-06T03:15:09.633Z,6.27
2023-01-06T03:16:11.806Z,6.24
2023-01-06T03:17:09.608Z,6.21
2023-01-06T03:18:09.656Z,6.19
2023-01-06T03:19:09.586Z,6.16
2023-01-06T03:20:09.697Z,6.13
2023-01-06T03:21:09.554Z,6.10
2023-01-06T03:22:09.682Z,6.06
2023-01-06T03:23:09.533Z,6.03
2023-01-06T03:24:32.759Z,5.99
2023-01-06T03:25:09.523Z,5.96
2023-01-06T03:26:09.607Z,5.92
2023-01-06T03:27:09.485Z,5.89
2023-01-06T03:28:10.617Z,5.85
2023-01-06T03:29:09.444Z,5.82
2023-01-06T03:30:10.609Z,5.79
2023-01-06T03:31:09.475Z,5.76
2023-01-06T03:32:09.618Z,5.73
2023-01-06T03:33:09.402Z,5.70
2023-01-06T03:34:09.500Z,5.68
2023-01-06T03:35:09.374Z,5.66
2023-01-06T03:36:09.527Z,5.63
2023-01-06T03:37:09.344Z,5.59
2023-01-06T03:38:09.414Z,5.56
2023-01-06T03:39:09.316Z,5.53
2023-01-06T03:40:12.676Z,5.49
2023-01-06T03:41:09.294Z,5.46
2023-01-06T03:42:09.496Z,5.43
2023-01-06T03:43:09.273Z,5.40
2023-01-06T03:44:09.332Z,5.37
2023-01-06T03:45:09.268Z,5.35
2023-01-06T03:46:10.287Z,5.33
2023-01-06T03:47:09.213Z,5.30
2023-01-06T03:48:09.294Z,5.26
2023-01-06T03:49:09.193Z,5.20
2023-01-06T03:50:09.338Z,5.14
2023-01-06T03:51:09.163Z,5.10
2023-01-06T03:52:09.256Z,5.06
2023-01-06T03:53:09.134Z,5.02
2023-01-06T03:54:30.174Z,5.00
2023-01-06T03:55:09.108Z,4.98
2023-01-06T03:56:09.238Z,4.97
2023-01-06T03:57:09.114Z,4.95
2023-01-06T03:58:09.179Z,4.94
2023-01-06T03:59:09.053Z,4.93
2023-01-06T04:00:09.213Z,4.91
2023-01-06T04:01:09.123Z,4.90
2023-01-06T04:02:10.063Z,4.88
2023-01-06T04:03:09.023Z,4.86
2023-01-06T04:04:09.075Z,4.84
2023-01-06T04:05:08.972Z,4.83
2023-01-06T04:06:09.130Z,4.83
2023-01-06T04:07:08.940Z,4.82
2023-01-06T04:08:10.095Z,4.80
2023-01-06T04:09:08.935Z,4.78
2023-01-06T04:10:10.114Z,4.74
2023-01-06T04:11:08.904Z,4.71
2023-01-06T04:12:09.013Z,4.69
2023-01-06T04:13:08.865Z,4.67
2023-01-06T04:14:33.154Z,4.63
2023-01-06T04:15:08.853Z,4.59
2023-01-06T04:16:08.876Z,4.54
2023-01-06T04:17:08.862Z,4.50
2023-01-06T04:18:08.796Z,4.49
2023-01-06T04:19:09.911Z,4.48
2023-01-06T04:20:08.811Z,4.49
2023-01-06T04:21:08.924Z,4.49
2023-01-06T04:22:08.744Z,4.49
2023-01-06T04:23:08.871Z,4.49
2023-01-06T04:24:08.712Z,4.50
2023-01-06T04:25:09.825Z,4.51
2023-01-06T04:26:08.708Z,4.48
2023-01-06T04:27:08.730Z,4.44
2023-01-06T04:28:08.660Z,4.41
2023-01-06T04:29:08.775Z,4.40
2023-01-06T04:30:08.633Z,4.38
2023-01-06T04:31:29.764Z,4.35
2023-01-06T04:32:08.623Z,4.31
2023-01-06T04:33:08.737Z,4.27
2023-01-06T04:34:08.592Z,4.23
2023-01-06T04:35:08.670Z,4.17
2023-01-06T04:36:08.562Z,4.13
2023-01-06T04:37:11.841Z,4.12
2023-01-06T04:38:08.534Z,4.11
2023-01-06T04:39:08.642Z,4.12
2023-01-06T04:40:08.502Z,4.12
2023-01-06T04:41:08.678Z,4.08
2023-01-06T04:42:08.479Z,4.01
2023-01-06T04:43:09.690Z,3.93
2023-01-06T04:44:08.477Z,3.86
2023-01-06T04:45:08.543Z,3.80
2023-01-06T04:46:08.490Z,3.74
2023-01-06T04:47:08.479Z,3.69
2023-01-06T04:48:08.399Z,3.63
2023-01-06T04:49:09.501Z,3.59
2023-01-06T04:50:08.369Z,3.56
2023-01-06T04:51:08.549Z,3.54
2023-01-06T04:52:08.350Z,3.51
2023-01-06T04:53:10.483Z,3.50
2023-01-06T04:54:08.322Z,3.50
2023-01-06T04:55:08.368Z,3.49
2023-01-06T04:56:08.294Z,3.50
2023-01-06T04:57:08.357Z,3.50
2023-01-06T04:58:08.276Z,3.51
2023-01-06T04:59:09.416Z,3.54
2023-01-06T05:00:08.225Z,3.54
2023-01-06T05:01:08.538Z,3.53
2023-01-06T05:02:08.214Z,3.53
2023-01-06T05:03:08.271Z,3.50
2023-01-06T05:04:08.236Z,3.47
2023-01-06T05:05:08.297Z,3.43
2023-01-06T05:06:08.159Z,3.40
2023-01-06T05:07:08.279Z,3.37
2023-01-06T05:08:08.131Z,3.33
2023-01-06T05:09:08.266Z,3.31
2023-01-06T05:10:08.098Z,3.28
2023-01-06T05:11:08.306Z,3.27
2023-01-06T05:12:08.075Z,3.26
2023-01-06T05:13:08.200Z,3.25
2023-01-06T05:14:08.081Z,3.23
2023-01-06T05:15:08.177Z,3.21
2023-01-06T05:16:08.068Z,3.21
2023-01-06T05:17:08.115Z,3.21
2023-01-06T05:18:08.004Z,3.22
2023-01-06T05:19:08.196Z,3.24
2023-01-06T05:20:07.964Z,3.25
2023-01-06T05:21:32.138Z,3.27
2023-01-06T05:22:07.956Z,3.27
2023-01-06T05:23:28.985Z,3.30
2023-01-06T05:24:07.914Z,3.33
2023-01-06T05:25:08.008Z,3.36
2023-01-06T05:26:07.892Z,3.39
2023-01-06T05:27:07.986Z,3.42
2023-01-06T05:28:07.865Z,3.43
2023-01-06T05:29:09.045Z,3.43
2023-01-06T05:30:07.837Z,3.44
2023-01-06T05:31:07.904Z,3.45
2023-01-06T05:32:07.823Z,3.47
2023-01-06T05:33:07.886Z,3.48
2023-01-06T05:34:07.789Z,3.48
2023-01-06T05:35:08.953Z,3.50
2023-01-06T05:36:07.773Z,3.50
2023-01-06T05:37:07.922Z,3.51
2023-01-06T05:38:07.747Z,3.52
2023-01-06T05:39:07.793Z,3.53
2023-01-06T05:40:07.702Z,3.56
2023-01-06T05:41:08.763Z,3.56
2023-01-06T05:42:07.678Z,3.56
2023-01-06T05:43:07.816Z,3.58
2023-01-06T05:44:07.668Z,3.59
2023-01-06T05:45:07.802Z,3.59
2023-01-06T05:46:07.678Z,3.60
2023-01-06T05:47:07.744Z,3.60
2023-01-06T05:48:07.592Z,3.59
2023-01-06T05:49:07.729Z,3.56
2023-01-06T05:50:07.577Z,3.53
2023-01-06T05:51:07.715Z,3.50
2023-01-06T05:52:07.552Z,3.49
2023-01-06T05:53:28.621Z,3.49
2023-01-06T05:54:07.525Z,3.48
2023-01-06T05:55:07.732Z,3.47
2023-01-06T05:56:07.506Z,3.47
2023-01-06T05:57:07.611Z,3.46
2023-01-06T05:58:07.471Z,3.46
2023-01-06T06:00:17.033Z,2.88
2023-01-06T06:01:16.971Z,2.89
2023-01-06T06:02:16.997Z,3.13
2023-01-06T06:03:16.794Z,3.26
2023-01-06T06:04:16.904Z,3.34
2023-01-06T06:05:16.775Z,3.36
2023-01-06T06:06:16.849Z,3.38
2023-01-06T06:07:16.751Z,3.38
2023-01-06T06:08:16.872Z,3.39
2023-01-06T06:09:16.722Z,3.43
2023-01-06T06:10:16.911Z,3.45
2023-01-06T06:11:16.699Z,3.46
2023-01-06T06:12:16.791Z,3.46
2023-01-06T06:13:16.673Z,3.48
2023-01-06T06:14:17.384Z,3.51
2023-01-06T06:15:16.693Z,3.53
2023-01-06T06:16:16.776Z,3.54
2023-01-06T06:17:16.621Z,3.56
2023-01-06T06:18:16.801Z,3.59
2023-01-06T06:19:16.614Z,3.62
2023-01-06T06:20:16.793Z,3.67
2023-01-06T06:21:16.593Z,3.71
2023-01-06T06:22:16.633Z,3.74
2023-01-06T06:23:16.531Z,3.76
2023-01-06T06:24:16.606Z,3.79
2023-01-06T06:25:16.512Z,3.81
2023-01-06T06:26:16.602Z,3.84
2023-01-06T06:27:16.479Z,3.85
2023-01-06T06:28:16.618Z,3.86
2023-01-06T06:29:16.449Z,3.86
2023-01-06T06:30:16.618Z,3.86
2023-01-06T06:31:16.489Z,3.86
2023-01-06T06:32:16.490Z,3.87
2023-01-06T06:33:16.439Z,3.88
2023-01-06T06:34:16.540Z,3.89
2023-01-06T06:35:16.371Z,3.91
2023-01-06T06:36:16.514Z,3.93
2023-01-06T06:37:16.348Z,3.95
2023-01-06T06:38:16.499Z,3.96
2023-01-06T06:39:16.318Z,3.98
2023-01-06T06:40:17.363Z,3.98
2023-01-06T06:41:16.295Z,4.00
2023-01-06T06:42:16.423Z,4.01
2023-01-06T06:43:16.267Z,4.03
2023-01-06T06:44:16.400Z,4.06
2023-01-06T06:45:16.264Z,4.09
2023-01-06T06:46:16.342Z,4.13
2023-01-06T06:47:16.274Z,4.17
2023-01-06T06:48:16.453Z,4.20
2023-01-06T06:49:16.188Z,4.22
2023-01-06T06:50:16.227Z,4.24
2023-01-06T06:51:16.158Z,4.27
2023-01-06T06:52:16.197Z,4.29
2023-01-06T06:53:16.134Z,4.31
2023-01-06T06:54:16.225Z,4.32
2023-01-06T06:55:16.117Z,4.34
2023-01-06T06:56:16.216Z,4.35
2023-01-06T06:57:16.086Z,4.35
2023-01-06T06:58:16.285Z,4.35
2023-01-06T06:59:16.110Z,4.36
2023-01-06T07:00:16.193Z,4.39
2023-01-06T07:01:16.183Z,4.42
2023-01-06T07:02:16.234Z,4.46
2023-01-06T07:03:15.996Z,4.48
2023-01-06T07:04:16.190Z,4.48
2023-01-06T07:05:15.965Z,4.46
2023-01-06T07:06:16.148Z,4.47
2023-01-06T07:07:15.943Z,4.48
2023-01-06T07:08:16.037Z,4.52
2023-01-06T07:09:15.923Z,4.57
2023-01-06T07:10:16.065Z,4.61
2023-01-06T07:11:15.905Z,4.63
2023-01-06T07:12:22.171Z,4.62
2023-01-06T07:13:15.875Z,4.61
2023-01-06T07:14:16.029Z,4.61
2023-01-06T07:15:15.853Z,4.64
2023-01-06T07:16:16.001Z,4.67
2023-01-06T07:17:15.819Z,4.71
2023-01-06T07:18:16.003Z,4.74
2023-01-06T07:19:15.783Z,4.76
2023-01-06T07:20:16.863Z,4.78
2023-01-06T07:21:15.797Z,4.79
2023-01-06T07:22:36.852Z,4.82
2023-01-06T07:23:15.733Z,4.84
2023-01-06T07:24:16.086Z,4.84
2023-01-06T07:25:15.703Z,4.86
2023-01-06T07:26:17.836Z,4.88
2023-01-06T07:27:15.683Z,4.92
2023-01-06T07:28:15.778Z,4.96
2023-01-06T07:29:15.657Z,4.99
2023-01-06T07:30:15.750Z,5.04
2023-01-06T07:31:15.693Z,5.08
2023-01-06T07:32:15.761Z,5.11
2023-01-06T07:33:15.606Z,5.14
2023-01-06T07:34:15.785Z,5.17
2023-01-06T07:35:15.583Z,5.18
2023-01-06T07:36:15.663Z,5.20
2023-01-06T07:37:16.402Z,5.22
2023-01-06T07:38:16.534Z,5.24
2023-01-06T07:39:15.651Z,5.26
2023-01-06T07:40:15.594Z,5.29
2023-01-06T07:41:15.510Z,5.31
2023-01-06T07:42:15.685Z,5.34
2023-01-06T07:43:15.475Z,5.36
2023-01-06T07:44:17.845Z,5.39
2023-01-06T07:45:15.444Z,5.39
2023-01-06T07:46:15.629Z,5.41
2023-01-06T07:47:15.420Z,5.43
2023-01-06T07:48:15.483Z,5.45
2023-01-06T07:49:15.490Z,5.47
2023-01-06T07:50:15.583Z,5.50
2023-01-06T07:51:15.383Z,5.52
2023-01-06T07:52:15.501Z,5.55
2023-01-06T07:53:15.331Z,5.59
2023-01-06T07:54:15.392Z,5.62
2023-01-06T07:55:15.304Z,5.66
2023-01-06T07:56:16.400Z,5.71
2023-01-06T07:57:17.308Z,5.75
2023-01-06T07:58:15.410Z,5.79
2023-01-06T07:59:15.260Z,5.81
2023-01-06T08:00:15.400Z,5.83
2023-01-06T08:01:15.380Z,5.87
2023-01-06T08:02:15.474Z,5.91
2023-01-06T08:03:15.658Z,5.95
2023-01-06T08:04:16.737Z,5.99
2023-01-06T08:05:15.565Z,6.04
2023-01-06T08:06:15.324Z,6.08
2023-01-06T08:07:15.149Z,6.12
2023-01-06T08:08:15.285Z,6.18
2023-01-06T08:09:15.120Z,6.21
2023-01-06T08:10:15.221Z,6.25
2023-01-06T08:11:15.141Z,6.29
2023-01-06T08:12:15.303Z,6.30
2023-01-06T08:13:15.080Z,6.34
2023-01-06T08:14:16.678Z,6.38
2023-01-06T08:15:15.221Z,6.43
2023-01-06T08:16:15.099Z,6.47
2023-01-06T08:17:15.040Z,6.50
2023-01-06T08:18:15.230Z,6.54
2023-01-06T08:19:14.991Z,6.57
2023-01-06T08:20:17.201Z,6.60
2023-01-06T08:21:14.980Z,6.64
2023-01-06T08:22:15.069Z,6.67
2023-01-06T08:23:15.029Z,6.69
2023-01-06T08:24:15.384Z,6.71
2023-01-06T08:25:14.926Z,6.73
2023-01-06T08:26:17.107Z,6.76
2023-01-06T08:27:14.878Z,6.79
2023-01-06T08:28:15.032Z,6.82
2023-01-06T08:29:14.864Z,6.87
2023-01-06T08:30:15.030Z,6.91
2023-01-06T08:31:14.871Z,6.94
2023-01-06T08:32:14.927Z,6.98
2023-01-06T08:33:14.827Z,7.01
2023-01-06T08:34:14.942Z,7.05
2023-01-06T08:35:14.776Z,7.10
2023-01-06T08:36:14.929Z,7.14
2023-01-06T08:37:14.747Z,7.17
2023-01-06T08:38:16.907Z,7.21
2023-01-06T08:39:14.732Z,7.24
2023-01-06T08:40:14.737Z,7.28
2023-01-06T08:41:14.699Z,7.30
2023-01-06T08:42:14.845Z,7.33
2023-01-06T08:43:14.668Z,7.36
2023-01-06T08:44:14.817Z,7.38
2023-01-06T08:45:14.646Z,7.39
2023-01-06T08:46:14.940Z,7.42
2023-01-06T08:47:14.616Z,7.45
2023-01-06T08:48:16.793Z,7.48
2023-01-06T08:49:14.626Z,7.50
2023-01-06T08:50:14.628Z,7.52
2023-01-06T08:51:14.567Z,7.53
2023-01-06T08:52:14.657Z,7.55
2023-01-06T08:53:14.565Z,7.57
2023-01-06T08:54:14.637Z,7.59
2023-01-06T08:55:14.511Z,7.60
2023-01-06T08:56:14.637Z,7.62
2023-01-06T08:57:14.487Z,7.64
2023-01-06T08:58:14.672Z,7.65
2023-01-06T08:59:14.466Z,7.67
2023-01-06T09:00:14.547Z,7.68
2023-01-06T09:01:14.486Z,7.70
2023-01-06T09:02:15.589Z,7.71
2023-01-06T09:03:14.396Z,7.72
2023-01-06T09:04:14.575Z,7.73
2023-01-06T09:05:14.398Z,7.76
2023-01-06T09:06:14.585Z,7.79
2023-01-06T09:07:14.345Z,7.81
2023-01-06T09:08:14.437Z,7.84
2023-01-06T09:09:14.338Z,7.87
2023-01-06T09:10:15.369Z,7.90
2023-01-06T09:11:14.295Z,7.93
2023-01-06T09:12:15.405Z,7.96
2023-01-06T09:13:14.279Z,7.99
2023-01-06T09:14:14.361Z,8.03
2023-01-06T09:15:14.237Z,8.06
2023-01-06T09:16:14.475Z,8.08
2023-01-06T09:17:14.253Z,8.11
2023-01-06T09:18:14.266Z,8.13
2023-01-06T09:19:14.962Z,8.16
2023-01-06T09:20:14.445Z,8.19
2023-01-06T09:21:14.166Z,8.21
2023-01-06T09:22:14.286Z,8.24
2023-01-06T09:23:14.126Z,8.26
2023-01-06T09:24:14.275Z,8.29
2023-01-06T09:25:14.116Z,8.31
2023-01-06T09:26:14.254Z,8.33
2023-01-06T09:27:14.132Z,8.35
2023-01-06T09:28:36.087Z,8.38
2023-01-06T09:29:14.048Z,8.39
2023-01-06T09:30:14.228Z,8.41
2023-01-06T09:31:14.061Z,8.42
2023-01-06T09:32:14.169Z,8.43
2023-01-06T09:33:13.991Z,8.46
2023-01-06T09:34:14.095Z,8.47
2023-01-06T09:35:16.104Z,8.49
2023-01-06T09:36:14.085Z,8.51
2023-01-06T09:37:13.944Z,8.53
2023-01-06T09:38:14.100Z,8.54
2023-01-06T09:39:13.920Z,8.54
2023-01-06T09:40:14.005Z,8.56
2023-01-06T09:41:14.027Z,8.57
2023-01-06T09:42:14.124Z,8.58
2023-01-06T09:43:13.863Z,8.59
2023-01-06T09:44:13.977Z,8.60
2023-01-06T09:45:13.849Z,8.61
2023-01-06T09:46:13.960Z,8.62
2023-01-06T09:47:13.814Z,8.63
2023-01-06T09:48:16.459Z,8.66
2023-01-06T09:49:13.832Z,8.67
2023-01-06T09:50:13.881Z,8.69
2023-01-06T09:51:13.754Z,8.72
2023-01-06T09:52:14.943Z,8.74
2023-01-06T09:53:13.811Z,8.76
2023-01-06T09:54:14.083Z,8.77
2023-01-06T09:55:13.703Z,8.77
2023-01-06T09:56:13.784Z,8.78
2023-01-06T09:57:13.688Z,8.79
2023-01-06T09:58:13.823Z,8.79
2023-01-06T09:59:13.653Z,8.80
2023-01-06T10:00:13.804Z,8.81
2023-01-06T10:01:13.659Z,8.82
2023-01-06T10:02:14.900Z,8.83
2023-01-06T10:03:13.602Z,8.84
2023-01-06T10:04:14.701Z,8.84
2023-01-06T10:05:13.572Z,8.83
2023-01-06T10:06:13.844Z,8.82
2023-01-06T10:07:13.582Z,8.81
2023-01-06T10:08:13.727Z,8.79
2023-01-06T10:09:13.524Z,8.78
2023-01-06T10:10:13.624Z,8.79
2023-01-06T10:11:13.505Z,8.79
2023-01-06T10:12:13.713Z,8.79
2023-01-06T10:13:13.483Z,8.78
2023-01-06T10:14:13.495Z,8.80
2023-01-06T10:15:13.451Z,8.82
2023-01-06T10:16:13.556Z,8.84
2023-01-06T10:17:13.506Z,8.85
2023-01-06T10:18:13.535Z,8.86
2023-01-06T10:19:13.394Z,8.89
2023-01-06T10:20:34.482Z,8.91
2023-01-06T10:21:13.362Z,8.93
2023-01-06T10:22:13.442Z,8.96
2023-01-06T10:23:13.335Z,8.99
2023-01-06T10:24:14.453Z,9.02
2023-01-06T10:25:15.821Z,9.05
2023-01-06T10:26:13.297Z,9.07
2023-01-06T10:27:13.407Z,9.08
2023-01-06T10:28:13.277Z,9.10
2023-01-06T10:29:13.313Z,9.13
2023-01-06T10:30:13.278Z,9.17
2023-01-06T10:31:35.586Z,9.21
2023-01-06T10:32:13.210Z,9.25
2023-01-06T10:33:13.201Z,9.27
2023-01-06T10:34:13.254Z,9.29
2023-01-06T10:35:13.174Z,9.32
2023-01-06T10:36:13.347Z,9.33
2023-01-06T10:37:13.171Z,9.34
2023-01-06T10:38:13.322Z,9.35
2023-01-06T10:39:13.121Z,9.36
2023-01-06T10:40:13.179Z,9.38
2023-01-06T10:41:13.101Z,9.39
2023-01-06T10:42:13.243Z,9.42
2023-01-06T10:43:13.079Z,9.46
2023-01-06T10:44:13.132Z,9.49
2023-01-06T10:45:13.057Z,9.52
2023-01-06T10:46:13.192Z,9.54
2023-01-06T10:47:13.022Z,9.57
2023-01-06T10:48:20.822Z,9.62
2023-01-06T10:49:12.984Z,9.67
2023-01-06T10:50:13.040Z,9.73
2023-01-06T10:51:12.962Z,9.78
2023-01-06T10:52:13.072Z,9.83
2023-01-06T10:53:12.943Z,9.87
2023-01-06T10:54:15.166Z,9.91
2023-01-06T10:55:12.911Z,9.95
2023-01-06T10:56:13.043Z,9.98
2023-01-06T10:57:12.902Z,10.02
2023-01-06T10:58:13.087Z,10.06
2023-01-06T10:59:12.893Z,10.10
2023-01-06T11:00:12.951Z,10.13
2023-01-06T11:01:13.020Z,10.15
2023-01-06T11:02:13.155Z,10.17
2023-01-06T11:03:32.245Z,10.19
2023-01-06T11:04:13.812Z,10.21
2023-01-06T11:05:12.879Z,10.22
2023-01-06T11:06:12.759Z,10.24
2023-01-06T11:07:12.897Z,10.27
2023-01-06T11:08:12.741Z,10.31
2023-01-06T11:09:13.852Z,10.35
2023-01-06T11:10:16.677Z,10.38
2023-01-06T11:11:26.808Z,10.42
2023-01-06T11:12:13.685Z,10.47
2023-01-06T11:13:12.700Z,10.51
2023-01-06T11:14:12.657Z,10.56
2023-01-06T11:15:12.732Z,10.60
2023-01-06T11:16:12.665Z,10.63
2023-01-06T11:17:34.773Z,10.67
2023-01-06T11:18:12.595Z,10.69
2023-01-06T11:19:12.703Z,10.72
2023-01-06T11:20:12.569Z,10.75
2023-01-06T11:21:12.745Z,10.78
2023-01-06T11:22:12.618Z,10.82
2023-01-06T11:23:12.574Z,10.86
2023-01-06T11:24:12.525Z,10.89
2023-01-06T11:25:12.505Z,10.93
2023-01-06T11:26:12.602Z,10.97
2023-01-06T11:27:12.472Z,11.01
2023-01-06T11:28:12.563Z,11.02
2023-01-06T11:29:12.450Z,11.03
2023-01-06T11:30:13.476Z,11.05
2023-01-06T11:31:12.464Z,11.07
2023-01-06T11:32:12.582Z,11.09
2023-01-06T11:33:12.413Z,11.11
2023-01-06T11:34:13.601Z,11.13
2023-01-06T11:35:12.362Z,11.15
2023-01-06T11:36:12.457Z,11.17
2023-01-06T11:37:12.371Z,11.19
2023-01-06T11:38:12.383Z,11.23
2023-01-06T11:39:12.314Z,11.26
2023-01-06T11:40:14.432Z,11.29
2023-01-06T11:41:12.285Z,11.31
2023-01-06T11:42:12.465Z,11.33
2023-01-06T11:43:12.269Z,11.35
2023-01-06T11:44:12.411Z,11.37
2023-01-06T11:45:12.233Z,11.37
2023-01-06T11:46:12.504Z,11.37
2023-01-06T11:47:12.204Z,11.37
2023-01-06T11:48:12.276Z,11.38
2023-01-06T11:49:12.181Z,11.37
2023-01-06T11:50:12.301Z,11.37
2023-01-06T11:51:12.161Z,11.37
2023-01-06T11:52:12.282Z,11.38
2023-01-06T11:53:12.121Z,11.39
2023-01-06T11:54:12.173Z,11.39
2023-01-06T11:55:13.417Z,11.40
2023-01-06T11:56:12.269Z,11.41
2023-01-06T11:57:12.072Z,11.42
2023-01-06T11:58:12.205Z,11.44
2023-01-06T11:59:12.042Z,11.47
2023-01-06T12:00:12.177Z,11.50
2023-01-06T12:01:12.061Z,11.52
2023-01-06T12:02:12.263Z,11.53
2023-01-06T12:03:12.053Z,11.55
2023-01-06T12:04:14.174Z,11.57
2023-01-06T12:05:11.961Z,11.59
2023-01-06T12:06:14.080Z,11.60
2023-01-06T12:07:11.932Z,11.62
2023-01-06T12:08:12.014Z,11.64
2023-01-06T12:09:11.903Z,11.65
2023-01-06T12:10:12.096Z,11.66
2023-01-06T12:11:11.883Z,11.68
2023-01-06T12:12:11.991Z,11.69
2023-01-06T12:13:11.863Z,11.72
2023-01-06T12:14:23.626Z,11.74
2023-01-06T12:15:12.874Z,11.77
2023-01-06T12:16:12.087Z,11.80
2023-01-06T12:17:11.974Z,11.82
2023-01-06T12:18:11.896Z,11.84
2023-01-06T12:19:11.779Z,11.86
2023-01-06T12:20:13.322Z,11.86
2023-01-06T12:21:11.811Z,11.86
2023-01-06T12:22:11.861Z,11.88
2023-01-06T12:23:11.710Z,11.90
2023-01-06T12:24:11.902Z,11.91
2023-01-06T12:25:11.706Z,11.92
2023-01-06T12:26:11.841Z,11.93
2023-01-06T12:27:11.694Z,11.95
2023-01-06T12:28:11.763Z,11.96
2023-01-06T12:29:11.655Z,11.98
2023-01-06T12:30:11.848Z,11.98
2023-01-06T12:31:11.726Z,12.00
2023-01-06T12:32:11.636Z,12.04
2023-01-06T12:33:11.622Z,12.07
2023-01-06T12:34:11.671Z,12.10
2023-01-06T12:35:11.568Z,12.11
2023-01-06T12:36:11.714Z,12.12
2023-01-06T12:37:11.546Z,12.13
2023-01-06T12:38:11.646Z,12.14
2023-01-06T12:39:11.522Z,12.13
2023-01-06T12:40:11.599Z,12.11
2023-01-06T12:41:11.481Z,12.09
2023-01-06T12:42:11.511Z,12.06
2023-01-06T12:43:11.452Z,12.04
2023-01-06T12:44:11.552Z,12.01
2023-01-06T12:45:11.433Z,11.98
2023-01-06T12:46:33.536Z,11.96
2023-01-06T12:47:11.401Z,11.95
2023-01-06T12:48:11.528Z,11.95
2023-01-06T12:49:11.376Z,11.93
2023-01-06T12:50:11.519Z,11.90
2023-01-06T12:51:11.387Z,11.84
2023-01-06T12:52:11.492Z,11.78
2023-01-06T12:53:19.966Z,11.73
2023-01-06T12:54:12.313Z,11.70
2023-01-06T12:55:11.392Z,11.69
2023-01-06T12:56:11.287Z,11.69
2023-01-06T12:57:11.380Z,11.70
2023-01-06T12:58:11.251Z,11.73
2023-01-06T12:59:11.372Z,11.78
2023-01-06T13:00:11.235Z,11.82
2023-01-06T13:01:11.547Z,11.86
2023-01-06T13:02:11.320Z,11.89
2023-01-06T13:03:11.387Z,11.91
2023-01-06T13:04:11.176Z,11.92
2023-01-06T13:05:11.270Z,11.94
2023-01-06T13:06:11.141Z,11.95
2023-01-06T13:07:11.199Z,11.96
2023-01-06T13:08:11.112Z,11.95
2023-01-06T13:09:13.231Z,11.96
2023-01-06T13:10:11.158Z,11.96
2023-01-06T13:11:11.319Z,11.94
2023-01-06T13:12:11.065Z,11.91
2023-01-06T13:13:11.111Z,11.90
2023-01-06T13:14:11.041Z,11.89
2023-01-06T13:15:12.111Z,11.89